x

9441102 - Westport, Wa (wptw1) Weather Station

9:36 - Sat 30th Jul 2016 All times are PDT. -7 hours from GMT.

  • Wind
    17mph, 21mph gusts
  • Sea Temp 55°f
  • Ar Temp 56°f
  • Sea Pressure 1016.7mb
  • 9441102 - Westport, Wa
  • 9441102 - Westport, Wa

More Historic Weather Station data

Upgrade to MSW Pro to gain access to the past 30 days of data for over 8000 Wavebouys and Weather Stations around the globe.

Join Pro

Comparision Forecast

View Surf forecast
   
Sáb 07/30 9:36 17 21 mph 1016.7mb 55f 56f
9:30 17 20 mph 1016.7mb 55f 56f
9:24 17 20 mph 1016.7mb 55f 56f
9:18 17 22 mph 1016.7mb 55f 56f
9:12 17 22 mph 1016.6mb 56f 56f
9:06 18 24 mph 1016.6mb 56f 56f
9:00 18 24 mph 1016.6mb 56f 56f
8:36 22 24 mph 1016.5mb 56f 55f
8:30 22 24 mph 1016.5mb 56f 55f
8:24 18 23 mph 1016.5mb 56f 55f
8:18 15 17 mph 1016.5mb 55f 55f
8:12 17 20 mph 1016.4mb 55f 55f
8:06 20 23 mph 1016.4mb 56f 56f
8:00 21 22 mph 1016.3mb 56f 56f
7:36 17 20 mph 1016.4mb 57f 56f
7:30 18 21 mph 1016.5mb 57f 56f
7:24 16 20 mph 1016.5mb 57f 56f
7:18 16 20 mph 1016.5mb 57f 56f
7:12 17 18 mph 1016.6mb 57f 56f
7:06 16 18 mph 1016.6mb 57f 56f
7:00 16 18 mph 1016.7mb 57f 56f
6:36 15 17 mph 1016.9mb 57f 57f
6:30 16 18 mph 1016.9mb 57f 57f
6:24 16 17 mph 1016.9mb 57f 57f
6:18 16 18 mph 1017mb 58f 57f
6:12 16 18 mph 1017mb 57f 57f
6:06 16 18 mph 1017mb 57f 57f
6:00 15 21 mph 1017mb 58f 57f
5:36 16 18 mph 1017mb 58f 57f
5:30 14 17 mph 1017.2mb 58f 57f
5:24 16 18 mph 1017.2mb 58f 57f
5:18 17 20 mph 1017.2mb 58f 57f
5:12 16 18 mph 1017.2mb 58f 57f
5:06 15 20 mph 1017.2mb 58f 57f
5:00 17 20 mph 1017.2mb 59f 57f
4:36 17 20 mph 1017.3mb 59f 57f
4:30 16 21 mph 1017.3mb 59f 57f
4:24 18 21 mph 1017.4mb 60f 57f
4:18 16 18 mph 1017.4mb 60f 57f
4:12 16 18 mph 1017.5mb 60f 57f
4:06 15 17 mph 1017.4mb 60f 57f
4:00 13 17 mph 1017.4mb 60f 57f
3:36 16 17 mph 1017.4mb 59f 57f
3:30 15 18 mph 1017.4mb 59f 57f
3:24 16 18 mph 1017.3mb 59f 57f
3:18 17 20 mph 1017.3mb 59f 57f
3:12 16 18 mph 1017.4mb 59f 56f
3:06 15 17 mph 1017.4mb 59f 57f
3:00 17 20 mph 1017.3mb 59f 57f
2:36 20 21 mph 1017.1mb 58f 56f
2:30 20 23 mph 1017.1mb 58f 56f
2:24 17 18 mph 1017.2mb 58f 56f
2:18 17 20 mph 1017.1mb 58f 56f
2:12 17 21 mph 1017.1mb 57f 56f
2:06 18 24 mph 1017mb 57f 56f
2:00 22 23 mph 1017.2mb 56f 56f
1:36 17 20 mph 1017.3mb 55f 57f
1:30 18 20 mph 1017.2mb 55f 57f
1:24 10 14 mph 1017.3mb 55f 56f
1:18 11 16 mph 1017.3mb 54f 56f
1:12 15 18 mph 1017.2mb 53f 57f
1:06 14 17 mph 1017.1mb 52f 56f
1:00 16 17 mph 1017mb 52f 57f
12:36 14 16 mph 1016.9mb 51f 57f
12:30 13 16 mph 1017mb 51f 57f
12:24 14 17 mph 1017mb 51f 57f
12:18 14 16 mph 1017mb 51f 56f
12:12 14 15 mph 1016.9mb 51f 57f
12:06 14 16 mph 1016.8mb 51f 57f
12:00 15 17 mph 1016.8mb 51f 57f
11:36 14 17 mph 1016.8mb 52f 57f
11:30 15 16 mph 1016.8mb 52f 57f
11:24 14 16 mph 1016.8mb 52f 57f
11:18 14 16 mph 1016.7mb 52f 57f
11:12 14 16 mph 1016.7mb 53f 57f
11:06 14 16 mph 1016.7mb 53f 57f
11:00 14 16 mph 1016.6mb 53f 57f
10:36 14
mph
1016.4mb 55f 57f
10:30 13 14 mph 1016.3mb 56f 57f
10:24 13 14 mph 1016.3mb 56f 57f
10:18 14 15 mph 1016.2mb 57f 57f
10:12 14 16 mph 1016.1mb 57f 57f
10:06 15
mph
1016.1mb 57f 57f
10:00 14 15 mph 1016.2mb 57f 57f
9:36 11 14 mph 1016.2mb 57f 56f
9:30 13 15 mph 1016.1mb 57f 56f
9:24 10 14 mph 1016.1mb 57f 56f
9:18 13 15 mph 1016mb 57f 56f
9:12 14 15 mph 1016mb 57f 57f
9:06 15 16 mph 1015.9mb 57f 57f
9:00 15 17 mph 1015.9mb 57f 57f
8:36 13 15 mph 1015.7mb 57f 56f
8:30 13 15 mph 1015.6mb 57f 56f
8:24 10 13 mph 1015.6mb 57f 56f
8:18 10 13 mph 1015.6mb 57f 55f
8:12 9 13 mph 1015.6mb 57f 55f
8:06 9 13 mph 1015.5mb 57f 55f
8:00 10 13 mph 1015.4mb 57f 55f
7:36 9 11 mph 1015.3mb 56f 55f
7:30 10 11 mph 1015.2mb 56f 55f
7:24 9 13 mph 1015.2mb 56f 55f
7:18 9 11 mph 1015.2mb 56f 55f
7:12 10 13 mph 1015.2mb 56f 55f
7:06 9 10 mph 1015.2mb 57f 55f
7:00 9 10 mph 1015.2mb 57f 55f
6:36 9 11 mph 1015.2mb 59f 55f
6:30 10 13 mph 1015.1mb 59f 55f
6:24 10 11 mph 1015.1mb 59f 55f
6:18 9 14 mph 1015.1mb 59f 55f
6:12 10 13 mph 1015mb 59f 55f
6:06 10 13 mph 1015mb 59f 55f
6:00 10 13 mph 1014.9mb 59f 55f
5:36 13 15 mph 1014.8mb 58f 56f
5:30 14 16 mph 1014.9mb 58f 55f
5:24 14 16 mph 1014.9mb 58f 55f
5:18 13 15 mph 1014.8mb 58f 55f
5:12 14 16 mph 1014.8mb 58f 55f
5:06 14 17 mph 1014.8mb 58f 56f
5:00 15 16 mph 1014.7mb 58f 56f
4:36 13 15 mph 1014.9mb 58f 55f
4:30 10 14 mph 1014.8mb 58f 55f
4:24 11 16 mph 1014.9mb 58f 56f
4:18 11 14 mph 1014.9mb 58f 55f
4:12 10 15 mph 1014.9mb 57f 55f
4:06 10 15 mph 1015mb 57f 56f
4:00 13 17 mph 1015mb 57f 56f
3:36 14 17 mph 1014.9mb 57f 56f
3:30 15 18 mph 1014.9mb 57f 56f
3:24 11 15 mph 1015mb 57f 55f
3:18 10 14 mph 1015mb 58f 55f
3:12 10 14 mph 1015mb 58f 55f
3:06 10 14 mph 1015mb 58f 55f
3:00 10 14 mph 1015mb 58f 55f
2:36 13 15 mph 1015.2mb 56f 55f
2:30 11 15 mph 1015.2mb 56f 55f
2:24 13 15 mph 1015.2mb 56f 55f
2:18 14 17 mph 1015.2mb 56f 55f
2:12 14 16 mph 1015.2mb 56f 55f
2:06 14 16 mph 1015.2mb 56f 55f
2:00 14 16 mph 1015.2mb 56f 55f
1:36 15 20 mph 1015.2mb 56f 55f
1:30 18 21 mph 1015.2mb 56f 55f
1:24 16 18 mph 1015.3mb 56f 55f
1:18 17 18 mph 1015.3mb 56f 55f
1:12 14 16 mph 1015.3mb 56f 55f
1:06 16 17 mph 1015.3mb 56f 55f
1:00 14 15 mph 1015.3mb 56f 55f
12:36 14 17 mph 1015.4mb 56f 55f
12:30 16 17 mph 1015.4mb 56f 55f
12:24 16 18 mph 1015.4mb 56f 55f
12:18 17 20 mph 1015.3mb 55f 55f
12:12 17 20 mph 1015.3mb 55f 55f
12:06 16 20 mph 1015.3mb 55f 55f
12:00 18 22 mph 1015.2mb 55f 55f
Sex 07/29 11:36 18 22 mph 1015.4mb 53f 55f
11:30 18 22 mph 1015.4mb 53f 55f
11:24 17 22 mph 1015.4mb 53f 55f
11:18 18 22 mph 1015.4mb 53f 55f
11:12 21 23 mph 1015.4mb 53f 56f
11:06 21 24 mph 1015.5mb 53f 56f
11:00 20 24 mph 1015.5mb 53f 56f
10:36 20 23 mph 1015.6mb 53f 56f
10:30 17 21 mph 1015.6mb 53f 56f
10:24 18 22 mph 1015.6mb 53f 56f
10:18 18 23 mph 1015.6mb 53f 56f
10:12 17 25 mph 1015.6mb 53f 56f
10:06 17 22 mph 1015.6mb 53f 56f
10:00 18 22 mph 1015.5mb 53f 56f
9:54 20 28 mph 1015.5mb 53f 56f
9:48 22 25 mph 1015.5mb 53f 56f
9:36 20 24 mph 1015.6mb 53f 56f
9:30 21 23 mph 1015.6mb 54f 56f
9:24 18 23 mph 1015.6mb 54f 56f
9:18 20 22 mph 1015.5mb 54f 56f
9:12 20 24 mph 1015.6mb 54f 56f
9:06 17 21 mph 1015.6mb 54f 56f
9:00 16 20 mph 1015.6mb 54f 56f
8:54 18 22 mph 1015.6mb 55f 57f
8:48 16 18 mph 1015.6mb 55f 57f
8:36 15 20 mph 1015.6mb 55f 57f
8:30 15 20 mph 1015.6mb 55f 57f
8:24 15 20 mph 1015.6mb 55f 57f
8:18 16 20 mph 1015.7mb 55f 57f
8:12 15 18 mph 1015.7mb 55f 58f
8:06 14 18 mph 1015.8mb 56f 58f
8:00 15 22 mph 1015.8mb 56f 58f
7:54 14 17 mph 1015.7mb 56f 58f
7:48 16 21 mph 1015.7mb 56f 58f
7:36 15 18 mph 1015.7mb 56f 58f
7:30 16 20 mph 1015.7mb 56f 58f
7:24 17 22 mph 1015.7mb 56f 58f
7:18 18 21 mph 1015.7mb 56f 58f
7:12 17 22 mph 1015.7mb 56f 58f
7:06 16 22 mph 1015.8mb 56f 58f
7:00 18 22 mph 1015.8mb 56f 58f
6:54 17 22 mph 1015.8mb 56f 58f
6:48 17 22 mph 1015.9mb 56f 58f
6:36 16 22 mph 1015.8mb 57f 58f
6:30 17 22 mph 1015.8mb 57f 58f
6:24 18 22 mph 1015.8mb 57f 58f
6:18 18 23 mph 1015.9mb 57f 58f
6:12 17 22 mph 1015.9mb 57f 59f
6:06 18 23 mph 1015.9mb 57f 59f
6:00 20 23 mph 1015.9mb 57f 59f
5:54 18 21 mph 1016mb 57f 59f
5:48 20 24 mph 1015.9mb 57f 59f
5:36 17 21 mph 1016mb 56f 59f
5:30 18 23 mph 1016.1mb 56f 59f
5:24 18 25 mph 1016.2mb 56f 59f
5:18 20 23 mph 1016.2mb 57f 59f
5:12 18 22 mph 1016.3mb 57f 59f
5:06 17 21 mph 1016.3mb 57f 59f
5:00 17 24 mph 1016.3mb 57f 59f
4:54 15 21 mph 1016.4mb 57f 59f
4:48 17 22 mph 1016.4mb 57f 59f
4:36 16 22 mph 1016.5mb 57f 59f
4:30 16 22 mph 1016.5mb 57f 59f
4:24 16 21 mph 1016.5mb 57f 59f
4:18 20 25 mph 1016.6mb 57f 59f
4:12 18 23 mph 1016.6mb 57f 59f
4:06 17 21 mph 1016.6mb 57f 59f
4:00 17 22 mph 1016.7mb 57f 59f
3:54 20 23 mph 1016.7mb 57f 59f
3:48 17 21 mph 1016.7mb 58f 59f
3:36 20 22 mph 1016.7mb 58f 59f
3:30 17 21 mph 1016.7mb 58f 59f
3:24 15 16 mph 1016.7mb 58f 59f
3:18 14 16 mph 1016.8mb 58f 59f
3:12 14 20 mph 1016.8mb 58f 59f
3:06 15 18 mph 1016.7mb 58f 59f
3:00 16 20 mph 1016.7mb 58f 59f
2:54 15 18 mph 1016.6mb 58f 59f
2:48 13 15 mph 1016.7mb 59f 59f
2:36 14 17 mph 1016.8mb 59f 59f
2:30 14 15 mph 1016.8mb 59f 59f
2:24 11 14 mph 1016.8mb 59f 59f
2:18 11 13 mph 1016.8mb 59f 58f
2:12 10 13 mph 1016.9mb 59f 58f
2:06 8 13 mph 1017mb 59f 58f
2:00 10 11 mph 1017mb 58f 58f
1:54 8 11 mph 1017mb 58f 57f
1:48 9 11 mph 1017mb 58f 57f
1:36 9 10 mph 1017mb 58f 57f
1:30 10 13 mph 1017.1mb 57f 57f
1:24 11
mph
1017.1mb 57f 57f
1:18 10 13 mph 1017.1mb 57f 57f
1:12 10 11 mph 1017.1mb 57f 57f
1:06 9 10 mph 1017.1mb 57f 57f
1:00 10 14 mph 1017.1mb 57f 56f
12:54 13 14 mph 1017.2mb 57f 56f
12:48 10 11 mph 1017.2mb 56f 56f
12:36 11 13 mph 1017.2mb 54f 56f
12:30 9 11 mph 1017.2mb 54f 56f
12:24 10 13 mph 1017.3mb 54f 55f
12:18 10 11 mph 1017.3mb 54f 55f
12:12 9 10 mph 1017.4mb 55f 56f
12:06 10 11 mph 1017.4mb 55f 56f
12:00 9 11 mph 1017.5mb 56f 55f
11:36 8 9 mph 1017.5mb 52f 55f
11:30 8 9 mph 1017.5mb 51f 55f
11:24 7 9 mph 1017.5mb 51f 55f
11:18 7 8 mph 1017.5mb 51f 55f
11:12 6 8 mph 1017.4mb 51f 55f
11:06 6 7 mph 1017.5mb 51f 55f
11:00 6
mph
1017.5mb 51f 55f
10:54 6 7 mph 1017.5mb 51f 56f
10:48 6 9 mph 1017.5mb 51f 55f
10:36 9 10 mph 1017.5mb 51f 55f
10:30 10
mph
1017.5mb 51f 55f
10:24 10
mph
1017.6mb 51f 55f
10:18 10
mph
1017.6mb 51f 55f
10:12 8 9 mph 1017.5mb 52f 55f
10:06 8 9 mph 1017.6mb 52f 55f
10:00 7
mph
1017.6mb 53f 55f
9:54 5
mph
1017.6mb 53f 55f
9:48 5 6 mph 1017.6mb 53f 56f
9:36 6 7 mph 1017.7mb 55f 55f
9:30 6 7 mph 1017.7mb 55f 55f
9:24 6 8 mph 1017.7mb 55f 55f
9:18 7 8 mph 1017.7mb 56f 55f
9:12 7 8 mph 1017.7mb 57f 55f
9:06 6 8 mph 1017.6mb 58f 55f
9:00 6 8 mph 1017.7mb 58f 55f
8:54 6 9 mph 1017.7mb 58f 55f
8:48 9 10 mph 1017.6mb 58f 55f
8:36 6
mph
1017.6mb 58f 55f
8:30 5 6 mph 1017.6mb 58f 55f
8:24 6 7 mph 1017.5mb 58f 55f
8:18 6 7 mph 1017.5mb 58f 55f
8:12 6 7 mph 1017.5mb 58f 55f
8:06 7
mph
1017.5mb 58f 54f
8:00 6 7 mph 1017.6mb 58f 54f
7:54 6 7 mph 1017.5mb 58f 54f
7:48 6
mph
1017.5mb 58f 54f
7:36 6 7 mph 1017.5mb 58f 54f
7:30 6 7 mph 1017.4mb 58f 54f
7:24 6 7 mph 1017.4mb 58f 54f
7:18 5 7 mph 1017.3mb 58f 55f
7:12 6 7 mph 1017.3mb 58f 55f
7:06 7 8 mph 1017.3mb 58f 55f
7:00 6 7 mph 1017.3mb 57f 55f
6:54 7 8 mph 1017.3mb 57f 55f
6:48 7 8 mph 1017.2mb 57f 55f
6:36 8 9 mph 1017.2mb 57f 55f
6:30 8 10 mph 1017.2mb 57f 55f
6:24 6 8 mph 1017.1mb 57f 55f
6:18 7 8 mph 1017.2mb 57f 55f
6:12 6 7 mph 1017.2mb 57f 55f
6:06 7
mph
1017.2mb 57f 55f
6:00 7
mph
1017.2mb 57f 55f
5:54 5 6 mph 1017.2mb 57f 55f
5:48 6 7 mph 1017.2mb 58f 55f
5:36 8 10 mph 1017.3mb 58f 56f
5:30 7 9 mph 1017.3mb 58f 56f
5:24 6 8 mph 1017.4mb 58f 56f
5:18 6 7 mph 1017.3mb 58f 56f
5:12 7 8 mph 1017.3mb 58f 55f
5:06 7 9 mph 1017.3mb 58f 56f
5:00 8 9 mph 1017.4mb 58f 56f
4:54 6 7 mph 1017.4mb 58f 56f
4:48 6 8 mph 1017.4mb 58f 56f
4:36 7 9 mph 1017.3mb 58f 55f
4:30 7 9 mph 1017.4mb 59f 55f
4:24 8 9 mph 1017.4mb 59f 55f
4:18 8 11 mph 1017.4mb 59f 56f
4:12 9 11 mph 1017.5mb 58f 56f
4:06 9 10 mph 1017.5mb 58f 56f
4:00 8 10 mph 1017.5mb 58f 56f
3:54 8 10 mph 1017.5mb 58f 56f
3:48 8 11 mph 1017.6mb 58f 56f
3:36 8 10 mph 1017.5mb 58f 56f
3:30 9 10 mph 1017.5mb 58f 56f
3:24 9 11 mph 1017.6mb 58f 56f
3:18 9 11 mph 1017.6mb 58f 56f
3:12 10 11 mph 1017.5mb 58f 56f
3:06 8 9 mph 1017.5mb 58f 56f
3:00 7 9 mph 1017.5mb 58f 56f
2:54 8 11 mph 1017.6mb 58f 56f
2:48 9 10 mph 1017.7mb 58f 56f
2:36 8 10 mph 1017.6mb 57f 56f
2:30 8 9 mph 1017.7mb 57f 56f
2:24 8 10 mph 1017.7mb 57f 56f
2:18 7 10 mph 1017.7mb 57f 56f
2:12 7 11 mph 1017.7mb 57f 56f
2:06 8 10 mph 1017.7mb 57f 56f
2:00 8 9 mph 1017.7mb 57f 56f
1:54 8 9 mph 1017.7mb 57f 56f
1:48 8 10 mph 1017.7mb 57f 56f
1:36 8 10 mph 1017.8mb 56f 56f
1:30 9 10 mph 1017.8mb 56f 56f
1:24 9 10 mph 1017.9mb 56f 56f
1:18 9 13 mph 1017.8mb 56f 56f
1:12 8 11 mph 1017.9mb 56f 55f
1:06 8 11 mph 1017.8mb 56f 55f
1:00 9 13 mph 1017.8mb 56f 56f
12:54 8 10 mph 1017.8mb 56f 55f
12:48 7 9 mph 1017.9mb 57f 55f
12:36 8 9 mph 1017.9mb 57f 56f
12:30 8 11 mph 1017.9mb 57f 56f
12:24 10 14 mph 1018mb 57f 56f
12:18 11 14 mph 1018mb 57f 56f
12:12 10 15 mph 1018mb 57f 56f
12:06 11 14 mph 1018mb 57f 56f
12:00 11 14 mph 1018mb 57f 56f
Qui 07/28 11:54 10 14 mph 1018mb 56f 56f
11:48 10 15 mph 1018.1mb 56f 56f
11:36 10 14 mph 1018.1mb 56f 56f
11:30 11 15 mph 1018.1mb 56f 56f
11:24 13 14 mph 1018.2mb 56f 56f
11:18 13 15 mph 1018.2mb 56f 56f
11:12 11 14 mph 1018.3mb 55f 56f
11:06 10 14 mph 1018.4mb 55f 55f
11:00 10 11 mph 1018.4mb 55f 55f
10:54 8 9 mph 1018.4mb 54f 55f
10:48 8 11 mph 1018.4mb 53f 55f
10:36 10 13 mph 1018.4mb 53f 56f
10:30 11 15 mph 1018.4mb 53f 56f
10:24 10 13 mph 1018.4mb 53f 56f
10:18 10 13 mph 1018.4mb 53f 56f
10:12 10 13 mph 1018.4mb 53f 56f
10:06 11 14 mph 1018.4mb 53f 56f
10:00 11 15 mph 1018.4mb 53f 56f
9:54 10 14 mph 1018.4mb 53f 56f
9:48 10 14 mph 1018.4mb 53f 56f
9:36 11 15 mph 1018.3mb 53f 56f
9:30 13 15 mph 1018.3mb 53f 56f
9:24 9 14 mph 1018.2mb 53f 56f
9:18 11 15 mph 1018.2mb 53f 56f
9:12 9 14 mph 1018.2mb 53f 55f
9:06 10 13 mph 1018.2mb 53f 55f
9:00 9 13 mph 1018.2mb 53f 55f
8:54 9 11 mph 1018.2mb 53f 55f
8:48 11 14 mph 1018.1mb 53f 55f
8:36 13 14 mph 1018.1mb 53f 55f
8:30 11 15 mph 1018.2mb 53f 55f
8:24 10 13 mph 1018.1mb 53f 55f
8:18 13 14 mph 1018.1mb 54f 55f
8:12 14 16 mph 1018.1mb 54f 55f
8:06 14 16 mph 1018.2mb 54f 55f
8:00 14 17 mph 1018.2mb 54f 55f
7:36 16 18 mph 1018.3mb 55f 55f
7:30 15 21 mph 1018.4mb 55f 55f
7:24 18 22 mph 1018.4mb 55f 55f
7:18 16 20 mph 1018.5mb 56f 55f
7:12 14 21 mph 1018.5mb 56f 55f
7:06 18 22 mph 1018.5mb 56f 55f
7:00 18 21 mph 1018.5mb 56f 55f
6:54 20 22 mph 1018.6mb 56f 55f
6:48 15 20 mph 1018.6mb 57f 55f
6:36 18 20 mph 1018.6mb 57f 56f
6:30 18 21 mph 1018.6mb 57f 56f
6:24 16 20 mph 1018.6mb 57f 56f
6:18 17 20 mph 1018.6mb 57f 57f
6:12 16 18 mph 1018.6mb 57f 58f
6:06 15 17 mph 1018.7mb 57f 59f
6:00 13 15 mph 1018.7mb 57f 59f
5:54 11 13 mph 1018.8mb 57f 59f
5:48 10 13 mph 1018.8mb 57f 59f
5:36 10 13 mph 1018.9mb 57f 60f
5:30 11 13 mph 1019mb 57f 60f
5:24 11 14 mph 1019mb 58f 60f
5:18 11 14 mph 1019.1mb 58f 60f
5:12 10 13 mph 1019.1mb 58f 60f
5:06 9 11 mph 1019.1mb 58f 60f
5:00 9 10 mph 1019.2mb 58f 60f
4:54 10 11 mph 1019.3mb 58f 60f
4:48 11 14 mph 1019.3mb 58f 60f
4:36 10 13 mph 1019.3mb 58f 60f
4:30 11 13 mph 1019.2mb 58f 60f
4:24 11 14 mph 1019.2mb 58f 60f
4:18 11 14 mph 1019.2mb 58f 60f
4:12 11 14 mph 1019.3mb 58f 60f
4:06 11 13 mph 1019.4mb 58f 60f
4:00 9 13 mph 1019.5mb 58f 60f
3:54 11 13 mph 1019.5mb 58f 59f
3:48 13 15 mph 1019.5mb 58f 59f
3:36 14 15 mph 1019.6mb 58f 58f
3:30 14 16 mph 1019.6mb 58f 58f
3:24 14 15 mph 1019.6mb 58f 57f
3:18 13 14 mph 1019.6mb 59f 57f
3:12 11 14 mph 1019.7mb 59f 57f
3:06 13 15 mph 1019.8mb 59f 57f
3:00 11 13 mph 1019.8mb 59f 57f
2:54 13
mph
1019.8mb 59f 57f
2:48 11 13 mph 1019.9mb 59f 57f
2:36 10 13 mph 1019.9mb 59f 57f
2:30 11 13 mph 1019.9mb 60f 57f
2:24 8 10 mph 1019.9mb 60f 57f
2:18 9 10 mph 1020mb 60f 57f
2:12 7 9 mph 1020mb 60f 57f
2:06 9 10 mph 1020.1mb 60f 58f
2:00 9 10 mph 1020.1mb 60f 58f
1:54 9 10 mph 1020.2mb 60f 58f
1:48 10
mph
1020.3mb 60f 58f
1:36 8 10 mph 1020.3mb 60f 58f
1:30 9 10 mph 1020.4mb 60f 58f
1:24 7 9 mph 1020.3mb 60f 58f
1:18 9 11 mph 1020.5mb 60f 58f
1:12 9 10 mph 1020.6mb 60f 58f
1:06 10 11 mph 1020.6mb 60f 59f
1:00 11
mph
1020.7mb 60f 59f
12:54 9 11 mph 1020.6mb 60f 59f
12:48 11 13 mph 1020.7mb 60f 59f
12:36 10 11 mph 1020.8mb 59f 59f
12:30 9 10 mph 1020.8mb 59f 59f
12:24 11
mph
1020.9mb 59f 59f
12:18 10 13 mph 1020.9mb 58f 59f
12:12 9
mph
1020.9mb 58f 60f
12:06 8 9 mph 1020.9mb 58f 60f
12:00 9 10 mph 1020.9mb 58f 59f
11:54 10 13 mph 1021.1mb 58f 59f
11:48 11 13 mph 1021.2mb 58f 58f
11:36 8 9 mph 1021.2mb 58f 60f
11:30 3 7 mph 1021.2mb 57f 60f
11:24 6 7 mph 1021.2mb 57f 60f
11:18 5 7 mph 1021.2mb 56f 60f
11:12 3 5 mph 1021.2mb 56f 61f
11:06 3 6 mph 1021.2mb 56f 61f
11:00 5
mph
1021.3mb 57f 60f
10:54 5 6 mph 1021.3mb 57f 60f
10:48 5 8 mph 1021.3mb 57f 59f
10:36 6 7 mph 1021.2mb 56f 57f
10:30 6 8 mph 1021.3mb 56f 57f
10:24 7 8 mph 1021.4mb 55f 57f
10:18 8 9 mph 1021.3mb 55f 56f
10:12 8 10 mph 1021.3mb 55f 56f
10:06 8 9 mph 1021.3mb 55f 56f
10:00 6 7 mph 1021.3mb 54f 57f
9:54 6 7 mph 1021.3mb 54f 56f
9:48 7 8 mph 1021.4mb 55f 56f
9:36 6 7 mph 1021.5mb 55f 56f
9:30 6 7 mph 1021.3mb 55f 56f
9:24 7
mph
1021.3mb 55f 56f
9:18 7
mph
1021.3mb 55f 56f
9:12 6
mph
1021.3mb 55f 55f
9:06 5 6 mph 1021.3mb 55f 56f
9:00 6 7 mph 1021.4mb 55f 55f
8:36 5 6 mph 1021.5mb 56f 55f
8:30 6 7 mph 1021.5mb 56f 55f
8:24 6 7 mph 1021.4mb 56f 55f
8:18 6 8 mph 1021.4mb 56f 55f
8:12 7 8 mph 1021.5mb 57f 55f
8:06 8 9 mph 1021.5mb 58f 55f
8:00 7 8 mph 1021.4mb 58f 54f
7:54 7 9 mph 1021.4mb 59f 54f
7:48 8 9 mph 1021.4mb 59f 54f
7:36 9 10 mph 1021.3mb 59f 54f
7:30 8 9 mph 1021.3mb 59f 54f
7:24 7 9 mph 1021.3mb 59f 55f
7:18 6 8 mph 1021.3mb 59f 55f
7:12 7 10 mph 1021.3mb 59f 54f
7:06 9 10 mph 1021.3mb 59f 54f
7:00 9 11 mph 1021.3mb 59f 54f
6:54 10 11 mph 1021.3mb 59f 54f
6:48 9 11 mph 1021.3mb 59f 55f
6:36 9 10 mph 1021.2mb 59f 55f
6:30 9 11 mph 1021.1mb 58f 55f
6:24 10 11 mph 1021.1mb 58f 55f
6:18 9 11 mph 1021.1mb 58f 55f
6:12 8 10 mph 1021.1mb 58f 55f
6:06 8 9 mph 1021mb 58f 55f
6:00 8 9 mph 1021mb 58f 55f
5:54 8 10 mph 1021mb 59f 55f
5:48 9 11 mph 1020.9mb 59f 55f
5:36 10 13 mph 1020.9mb 58f 55f
5:30 10 14 mph 1020.9mb 58f 55f
5:24 13 15 mph 1020.9mb 58f 56f
5:18 11 14 mph 1020.9mb 58f 56f
5:12 14 16 mph 1020.8mb 58f 56f
5:06 14 17 mph 1020.9mb 58f 56f
5:00 14 16 mph 1020.9mb 58f 56f
4:54 14 16 mph 1020.9mb 58f 56f
4:48 13 17 mph 1020.8mb 58f 56f
4:36 14 16 mph 1020.8mb 59f 56f
4:30 14 17 mph 1020.8mb 59f 56f
4:24 14 15 mph 1020.9mb 60f 56f
4:18 14 16 mph 1020.8mb 60f 55f
4:12 14 17 mph 1020.9mb 60f 55f
4:06 14 17 mph 1020.9mb 60f 55f
4:00 14 18 mph 1021mb 60f 55f
3:54 15 18 mph 1020.9mb 60f 55f
3:48 16 20 mph 1020.9mb 60f 55f
3:36 13 18 mph 1020.9mb 59f 56f
3:30 15 20 mph 1020.9mb 59f 56f
3:24 16 22 mph 1020.8mb 59f 56f
3:18 15 20 mph 1020.9mb 59f 56f
3:12 16 18 mph 1020.8mb 59f 55f
3:06 14 22 mph 1020.8mb 59f 55f
3:00 16 21 mph 1020.8mb 58f 55f
2:54 15 21 mph 1020.8mb 58f 55f
2:48 17 23 mph 1020.7mb 58f 55f
2:36 16 22 mph 1020.7mb 58f 55f
2:30 16 22 mph 1020.7mb 58f 55f
2:24 18 21 mph 1020.7mb 58f 55f
2:18 14 17 mph 1020.7mb 58f 55f
2:12 16 18 mph 1020.7mb 58f 55f
2:06 15 16 mph 1020.7mb 58f 55f
2:00 14 17 mph 1020.6mb 58f 55f
1:54 15 20 mph 1020.7mb 58f 55f
1:48 15 20 mph 1020.7mb 58f 55f
1:36 16 20 mph 1020.8mb 58f 55f
1:30 17 22 mph 1020.8mb 58f 55f
1:24 16 21 mph 1020.8mb 58f 55f
1:18 14 18 mph 1020.8mb 58f 55f
1:12 17 22 mph 1020.9mb 58f 55f
1:06 15 18 mph 1020.8mb 58f 55f
1:00 17 18 mph 1020.9mb 58f 55f
12:54 16 18 mph 1020.8mb 58f 55f
12:48 16 21 mph 1020.8mb 58f 55f
12:36 16 20 mph 1021mb 57f 55f
12:30 15 18 mph 1021mb 57f 55f
12:24 16 18 mph 1021mb 57f 55f
12:18 15 17 mph 1021mb 57f 55f
12:12 16 20 mph 1021.1mb 57f 55f
12:06 16 18 mph 1021.1mb 57f 55f
12:00 16 18 mph 1021.1mb 57f 55f
Qua 07/27 11:54 13 21 mph 1021.1mb 57f 55f
11:48 14 23 mph 1021.2mb 57f 55f
11:36 14 18 mph 1021.2mb 57f 56f
11:30 14 20 mph 1021.3mb 57f 56f
11:24 17 22 mph 1021.3mb 58f 56f
11:18 17 24 mph 1021.3mb 57f 56f
11:12 20 23 mph 1021.3mb 57f 56f
11:06 14 17 mph 1021.3mb 57f 56f
11:00 10 13 mph 1021.3mb 57f 56f
10:54 10 13 mph 1021.3mb 57f 56f
10:48 9 13 mph 1021.3mb 57f 56f
10:36 9 13 mph 1021.3mb 57f 56f
10:30 10 11 mph 1021.3mb 57f 56f
10:24 9 13 mph 1021.3mb 57f 56f
10:18 9 11 mph 1021.2mb 56f 56f
10:12 9 10 mph 1021.1mb 56f 56f
10:06 9 13 mph 1021.2mb 56f 56f
10:00 9 11 mph 1021.2mb 56f 56f
9:54 10 14 mph 1021.1mb 55f 56f
9:48 9 11 mph 1021mb 55f 56f
9:36 10 14 mph 1020.9mb 54f 56f
9:30 9 14 mph 1020.8mb 54f 56f
9:24 9 13 mph 1020.8mb 54f 56f
9:18 10 15 mph 1020.8mb 54f 56f
9:12 11 14 mph 1020.8mb 54f 56f
9:06 9 11 mph 1020.8mb 54f 56f
9:00 6 9 mph 1020.7mb 54f 55f
8:54 7 11 mph 1020.7mb 54f 55f
8:48 9 11 mph 1020.8mb 54f 56f
8:36 10 14 mph 1020.8mb 53f 55f
8:30 14 15 mph 1020.7mb 53f 55f
8:24 14 18 mph 1020.7mb 53f 55f
8:18 14 18 mph 1020.7mb 53f 55f
8:12 15 17 mph 1020.6mb 53f 55f
8:06 13 17 mph 1020.7mb 53f 55f
8:00 13 17 mph 1020.8mb 53f 55f
7:54 14 21 mph 1020.8mb 53f 55f
7:48 17 21 mph 1020.8mb 53f 55f
7:36 14 16 mph 1020.7mb 54f 55f
7:30 14 17 mph 1020.7mb 54f 55f
7:24 15 17 mph 1020.7mb 54f 55f
7:18 13 15 mph 1020.7mb 54f 55f
7:12 14 17 mph 1020.8mb 54f 55f
7:06 14 17 mph 1020.8mb 54f 55f
7:00 15 17 mph 1020.8mb 55f 55f
6:54 11 16 mph 1020.8mb 55f 55f
6:48 16 21 mph 1020.8mb 55f 55f
6:36 14 18 mph 1020.8mb 56f 55f
6:30 16 18 mph 1020.8mb 56f 55f
6:24 14 16 mph 1020.9mb 56f 55f
6:18 14 16 mph 1021mb 57f 55f
6:12 14 17 mph 1021mb 57f 55f
6:06 13 16 mph 1021mb 57f 56f
6:00 14 17 mph 1021.1mb 57f 55f
5:54 16 18 mph 1021.1mb 58f 56f
5:48 15 17 mph 1021.2mb 58f 56f
5:36 13 17 mph 1021.1mb 58f 56f
5:30 14 17 mph 1021.1mb 58f 56f
5:24 15 17 mph 1021.1mb 58f 56f
5:18 17 20 mph 1021.2mb 58f 56f
5:12 17 20 mph 1021.2mb 58f 56f
5:06 16 20 mph 1021.3mb 58f 56f
5:00 16 21 mph 1021.3mb 59f 56f
4:54 16 17 mph 1021.2mb 59f 56f
4:48 15 18 mph 1021.2mb 59f 56f
4:36 14 17 mph 1021.2mb 59f 56f
4:30 15 18 mph 1021.3mb 59f 56f
4:24 17 20 mph 1021.3mb 59f 56f
4:18 14 17 mph 1021.4mb 59f 56f
4:12 15 18 mph 1021.2mb 59f 57f
4:06 16 18 mph 1021.3mb 59f 56f
4:00 16 18 mph 1021.3mb 59f 57f
3:54 15 17 mph 1021.3mb 59f 57f
3:48 15 16 mph 1021.2mb 59f 57f
3:36 14 16 mph 1021.1mb 59f 57f
3:30 13 15 mph 1021.2mb 59f 57f
3:24 13 15 mph 1021.2mb 59f 57f
3:18 11 15 mph 1021.3mb 59f 57f
3:12 14 15 mph 1021.3mb 59f 57f
3:06 11 14 mph 1021.3mb 59f 58f
3:00 13 15 mph 1021.4mb 59f 57f
2:54 13 14 mph 1021.4mb 59f 58f
2:48 10 13 mph 1021.4mb 59f 58f
2:36 13 14 mph 1021.5mb 59f 58f
2:30 10 11 mph 1021.5mb 59f 58f
2:24 11 13 mph 1021.6mb 59f 58f
2:18 10 13 mph 1021.6mb 59f 58f
2:12 9 14 mph 1021.6mb 59f 59f
2:06 11 13 mph 1021.7mb 59f 58f
2:00 9 11 mph 1021.9mb 59f 58f
1:54 10 11 mph 1021.9mb 59f 58f
1:48 11 14 mph 1021.9mb 59f 58f
1:36 10 13 mph 1021.9mb 60f 58f
1:30 8 9 mph 1021.9mb 60f 58f
1:24 6 7 mph 1022mb 60f 58f
1:18 5 7 mph 1021.9mb 60f 58f
1:12 5 8 mph 1022mb 60f 59f
1:06 7 8 mph 1022.1mb 60f 58f
1:00 8 9 mph 1022.1mb 60f 59f
12:36 3 7 mph 1022.2mb 60f 57f
12:30 6 7 mph 1022.3mb 60f 57f
12:24 5 7 mph 1022.2mb 60f 58f
12:18 6 7 mph 1022.2mb 60f 59f
12:12 6 7 mph 1022.2mb 60f 60f
12:06 6 8 mph 1022.1mb 60f 60f
12:00 7
mph
1022.2mb 60f 60f
11:54 8 10 mph 1022.1mb 60f 58f
11:48 10
mph
1022.1mb 60f 58f
11:36 7 8 mph 1022.1mb 60f 59f
11:30 7 8 mph 1022mb 60f 59f
11:24 7
mph
1022mb 60f 59f
11:18 5 6 mph 1021.9mb 59f 60f
11:12 3
mph
1021.9mb 59f 60f
11:06 2 5 mph 1021.9mb 59f 60f
11:00 3 5 mph 1022mb 59f 60f
10:54 3 5 mph 1021.9mb 59f 60f
10:48 3 5 mph 1021.9mb 59f 60f
10:36 2 3 mph 1021.8mb 58f 58f
10:30 3 6 mph 1021.9mb 58f 58f
10:24 5
mph
1021.9mb 58f 57f
10:18 3 5 mph 1021.9mb 58f 58f
10:12 2 3 mph 1021.8mb 58f 58f
10:06 2 3 mph 1021.9mb 58f 58f
10:00  -  2 mph 1021.9mb 58f 58f
9:54  -  2 mph 1021.9mb 57f 57f
9:48 1 2 mph 1021.9mb 58f 57f
9:36 1 2 mph 1021.9mb 58f 57f
9:30 1 2 mph 1021.8mb 58f 57f
9:24 2 3 mph 1021.9mb 58f 57f
9:18 2 3 mph 1021.8mb 57f 57f
9:12  -  3 mph 1021.8mb 58f 57f
9:06 2 3 mph 1021.7mb 57f 57f
9:00  -  2 mph 1021.7mb 57f 57f
8:54  -  2 mph 1021.6mb 57f 57f
8:48  -  2 mph 1021.6mb 56f 57f
8:36 2 3 mph 1021.5mb 55f 56f
8:30 2 3 mph 1021.5mb 55f 56f
8:24 2 3 mph 1021.5mb 55f 56f
8:18 3 5 mph 1021.5mb 55f 56f
8:12 3 5 mph 1021.4mb 55f 56f
8:06 5 6 mph 1021.4mb 55f 56f
8:00 5 6 mph 1021.3mb 55f 56f
7:54 5 6 mph 1021.3mb 55f 56f
7:48 5 6 mph 1021.3mb 55f 56f
7:36 3 6 mph 1021.2mb 55f 56f
7:30 5 6 mph 1021.2mb 55f 56f
7:24 5
mph
1021.1mb 56f 56f
7:18 3
mph
1021.1mb 56f 56f
7:12 2 3 mph 1021.2mb 56f 56f
7:06 1 2 mph 1021.2mb 56f 56f
7:00 2 3 mph 1021.1mb 57f 56f
6:54 2
mph
1021.1mb 58f 56f
6:48 2 3 mph 1021.1mb 59f 56f
6:36 3 6 mph 1021.1mb 59f 56f
6:30 5 6 mph 1021mb 59f 56f
6:24 5 6 mph 1021mb 60f 56f
6:18 5 6 mph 1020.9mb 60f 56f
6:12 6 9 mph 1020.9mb 60f 56f
6:06 6 7 mph 1020.9mb 60f 56f
6:00 6 7 mph 1020.8mb 60f 56f
5:54 5 7 mph 1020.8mb 60f 56f